Time;durP1;ratioP1;P1;durP2;ratioP2;P2;SDS_P1;SDS_P2;PMS_P1;PMS_P2;Temp;Humidity;BMP_temperature;BMP_pressure;BME280_temperature;BME280_humidity;BME280_pressure;Samples;Min_cycle;Max_cycle;Signal;HPM_P1;HPM_P2
2024/01/12 00:00:36;;;;;;;70.43;19.93;;;;;;;;;;5016837;28;20223;-84
2024/01/12 00:03:04;;;;;;;99.43;20.20;;;;;;;;;;5049509;28;20293;-86
2024/01/12 00:05:29;;;;;;;48.67;18.70;;;;;;;;;;5019292;28;20338;-83
2024/01/12 00:07:59;;;;;;;49.97;18.60;;;;;;;;;;5037080;28;20230;-82
2024/01/12 00:10:25;;;;;;;67.53;19.90;;;;;;;;;;5053354;28;20251;-83
2024/01/12 00:12:50;;;;;;;45.27;17.03;;;;;;;;;;5046598;28;20227;-83
2024/01/12 00:15:16;;;;;;;54.00;17.80;;;;;;;;;;5056690;28;20230;-83
2024/01/12 00:17:46;;;;;;;60.33;17.93;;;;;;;;;;5024840;28;20227;-85
2024/01/12 00:20:12;;;;;;;63.70;17.40;;;;;;;;;;5018708;28;20215;-84
2024/01/12 00:22:40;;;;;;;80.23;19.70;;;;;;;;;;5024745;28;20280;-84
2024/01/12 00:25:06;;;;;;;53.23;19.47;;;;;;;;;;5041847;28;20538;-85
2024/01/12 00:27:34;;;;;;;74.50;19.97;;;;;;;;;;5041417;28;20226;-84
2024/01/12 00:29:59;;;;;;;83.03;21.43;;;;;;;;;;5015767;28;20596;-84
2024/01/12 00:32:25;;;;;;;52.33;18.07;;;;;;;;;;5038851;28;20226;-84
2024/01/12 00:34:51;;;;;;;46.77;18.40;;;;;;;;;;5036794;28;20221;-85
2024/01/12 00:37:16;;;;;;;43.17;18.70;;;;;;;;;;5039970;28;20589;-84
2024/01/12 00:39:41;;;;;;;36.40;19.60;;;;;;;;;;5041169;28;20225;-85
2024/01/12 00:42:07;;;;;;;28.67;19.17;;;;;;;;;;5039886;28;20226;-85
2024/01/12 00:44:33;;;;;;;38.80;20.37;;;;;;;;;;5020388;28;20273;-85
2024/01/12 00:46:58;;;;;;;68.90;19.53;;;;;;;;;;5024005;28;20687;-85
2024/01/12 00:49:24;;;;;;;60.13;20.33;;;;;;;;;;5021371;28;20280;-84
2024/01/12 00:51:52;;;;;;;73.73;19.27;;;;;;;;;;5039574;28;20223;-85
2024/01/12 00:54:26;;;;;;;40.30;18.00;;;;;;;;;;5042135;28;20327;-85
2024/01/12 00:56:54;;;;;;;43.83;18.20;;;;;;;;;;5031512;28;20225;-85
2024/01/12 00:59:22;;;;;;;73.73;20.33;;;;;;;;;;5057012;28;20691;-85
2024/01/12 01:01:48;;;;;;;52.63;20.40;;;;;;;;;;5041512;28;20230;-84
2024/01/12 01:04:13;;;;;;;63.33;19.93;;;;;;;;;;5020214;28;20219;-85
2024/01/12 01:06:44;;;;;;;56.13;20.37;;;;;;;;;;5023153;28;20223;-84
2024/01/12 01:09:09;;;;;;;44.13;21.30;;;;;;;;;;5037326;28;20231;-85
2024/01/12 01:11:35;;;;;;;60.47;21.80;;;;;;;;;;5036566;28;20218;-84
2024/01/12 01:14:03;;;;;;;43.47;19.80;;;;;;;;;;5040758;28;20576;-85
2024/01/12 01:16:28;;;;;;;39.97;20.40;;;;;;;;;;5022352;28;20214;-84
2024/01/12 01:18:54;;;;;;;27.90;20.20;;;;;;;;;;5025896;28;20598;-83
2024/01/12 01:21:20;;;;;;;33.53;18.63;;;;;;;;;;5010852;28;20210;-85
2024/01/12 01:23:47;;;;;;;50.80;18.57;;;;;;;;;;5040697;28;20263;-85
2024/01/12 01:26:17;;;;;;;36.97;16.90;;;;;;;;;;5042185;28;20211;-85
2024/01/12 01:28:43;;;;;;;38.27;17.47;;;;;;;;;;5035384;28;20597;-84
2024/01/12 01:31:10;;;;;;;39.00;18.33;;;;;;;;;;5022888;28;20211;-84
2024/01/12 01:33:38;;;;;;;47.80;18.57;;;;;;;;;;5034996;28;20749;-85
2024/01/12 01:36:04;;;;;;;53.23;16.67;;;;;;;;;;5024090;28;20215;-85
2024/01/12 01:38:29;;;;;;;49.07;18.17;;;;;;;;;;5020938;28;20215;-84
2024/01/12 01:40:55;;;;;;;29.63;17.83;;;;;;;;;;5042610;28;20218;-83
2024/01/12 01:43:21;;;;;;;31.43;16.87;;;;;;;;;;5023167;28;20211;-84
2024/01/12 01:45:49;;;;;;;29.27;17.70;;;;;;;;;;5023725;28;20699;-84
2024/01/12 01:48:16;;;;;;;35.10;18.43;;;;;;;;;;5043260;28;20222;-85
2024/01/12 01:50:44;;;;;;;47.80;18.53;;;;;;;;;;5012728;28;20564;-85
2024/01/12 01:53:12;;;;;;;40.90;19.23;;;;;;;;;;5040219;28;20222;-85
2024/01/12 01:55:37;;;;;;;55.17;18.53;;;;;;;;;;5025423;28;20623;-84
2024/01/12 01:58:05;;;;;;;34.37;19.47;;;;;;;;;;5028086;28;20235;-83
2024/01/12 02:00:31;;;;;;;46.13;19.17;;;;;;;;;;5031610;28;20234;-84
2024/01/12 02:02:57;;;;;;;56.43;21.83;;;;;;;;;;5039653;28;20207;-84
2024/01/12 02:05:25;;;;;;;46.07;20.63;;;;;;;;;;5036783;28;20214;-85
2024/01/12 02:07:52;;;;;;;36.87;19.83;;;;;;;;;;5040230;28;20227;-85
2024/01/12 02:10:18;;;;;;;25.33;18.43;;;;;;;;;;5040763;28;20562;-84
2024/01/12 02:12:44;;;;;;;38.17;19.63;;;;;;;;;;5054999;28;20249;-85
2024/01/12 02:15:12;;;;;;;28.77;18.00;;;;;;;;;;5054394;28;20704;-85
2024/01/12 02:17:43;;;;;;;29.27;19.13;;;;;;;;;;5036856;28;20233;-84
2024/01/12 02:20:12;;;;;;;38.90;17.87;;;;;;;;;;5053851;28;20230;-84
2024/01/12 02:22:42;;;;;;;23.23;17.83;;;;;;;;;;5024013;28;20215;-85
2024/01/12 02:25:11;;;;;;;25.90;17.03;;;;;;;;;;5034177;28;20577;-85
2024/01/12 02:27:37;;;;;;;35.17;18.87;;;;;;;;;;5021486;28;20223;-84
2024/01/12 02:30:05;;;;;;;37.47;19.27;;;;;;;;;;5036191;28;20254;-85
2024/01/12 02:32:35;;;;;;;29.70;18.30;;;;;;;;;;5004458;28;20222;-84
2024/01/12 02:35:07;;;;;;;43.73;20.20;;;;;;;;;;5040045;28;20691;-85
2024/01/12 02:37:35;;;;;;;29.47;18.30;;;;;;;;;;5051363;28;20717;-85
2024/01/12 02:40:03;;;;;;;34.23;20.53;;;;;;;;;;5038670;28;20227;-84
2024/01/12 02:42:31;;;;;;;65.00;20.93;;;;;;;;;;5043807;28;20238;-85
2024/01/12 02:44:56;;;;;;;65.70;21.93;;;;;;;;;;5058438;28;20214;-85
2024/01/12 02:47:24;;;;;;;43.30;20.17;;;;;;;;;;5033397;28;20218;-84
2024/01/12 02:49:49;;;;;;;57.00;20.57;;;;;;;;;;5053289;28;20217;-84
2024/01/12 02:52:15;;;;;;;56.03;19.70;;;;;;;;;;5037436;28;20223;-85
2024/01/12 02:54:43;;;;;;;33.30;20.87;;;;;;;;;;5022660;28;20558;-85
2024/01/12 02:57:12;;;;;;;44.63;21.03;;;;;;;;;;5023144;28;20295;-84
2024/01/12 02:59:37;;;;;;;38.27;20.33;;;;;;;;;;5023397;28;20219;-85
2024/01/12 03:02:03;;;;;;;42.27;19.70;;;;;;;;;;5033824;28;20224;-84
2024/01/12 03:04:28;;;;;;;50.40;20.03;;;;;;;;;;5022241;28;20215;-85
2024/01/12 03:06:56;;;;;;;67.83;19.30;;;;;;;;;;5025688;28;20234;-84
2024/01/12 03:09:22;;;;;;;59.07;20.47;;;;;;;;;;5021695;28;20229;-84
2024/01/12 03:11:50;;;;;;;49.23;20.27;;;;;;;;;;5034883;28;20227;-85
2024/01/12 03:14:15;;;;;;;41.10;18.83;;;;;;;;;;5037206;28;20227;-85
2024/01/12 03:16:41;;;;;;;54.40;19.93;;;;;;;;;;5034783;28;20589;-85
2024/01/12 03:19:06;;;;;;;46.33;20.83;;;;;;;;;;5042464;28;20237;-85
2024/01/12 03:21:34;;;;;;;71.23;20.57;;;;;;;;;;5044604;28;20284;-84
2024/01/12 03:24:02;;;;;;;61.50;23.60;;;;;;;;;;5035794;28;20226;-84
2024/01/12 03:26:30;;;;;;;49.77;21.83;;;;;;;;;;5019054;28;20222;-84
2024/01/12 03:28:55;;;;;;;49.33;22.30;;;;;;;;;;5040820;28;20211;-86
2024/01/12 03:31:23;;;;;;;61.37;22.93;;;;;;;;;;5033828;28;20230;-86
2024/01/12 03:33:51;;;;;;;57.20;22.60;;;;;;;;;;5036585;28;20215;-86
2024/01/12 03:36:16;;;;;;;64.10;24.07;;;;;;;;;;5042547;28;20223;-86
2024/01/12 03:38:42;;;;;;;34.37;21.27;;;;;;;;;;5053372;28;20264;-86
2024/01/12 03:41:08;;;;;;;103.00;23.23;;;;;;;;;;5025576;28;20301;-86
2024/01/12 03:43:34;;;;;;;137.63;24.30;;;;;;;;;;5053842;28;20290;-86
2024/01/12 03:45:59;;;;;;;59.97;21.50;;;;;;;;;;5037668;28;20317;-86
2024/01/12 03:48:25;;;;;;;44.07;21.60;;;;;;;;;;5024589;28;20219;-85
2024/01/12 03:50:52;;;;;;;38.23;20.70;;;;;;;;;;5037242;28;20214;-86
2024/01/12 03:53:18;;;;;;;49.07;20.67;;;;;;;;;;5030170;28;20285;-85
2024/01/12 03:55:46;;;;;;;80.73;20.27;;;;;;;;;;5047431;28;20283;-86
2024/01/12 03:58:12;;;;;;;36.40;19.87;;;;;;;;;;5023301;28;20800;-86
2024/01/12 04:04:24;;;;;;;32.53;18.27;;;;;;;;;;5066357;28;20225;-84
2024/01/12 04:06:52;;;;;;;46.93;19.97;;;;;;;;;;5003806;28;20215;-84
2024/01/12 04:09:20;;;;;;;31.13;21.90;;;;;;;;;;5036897;28;21007;-84
2024/01/12 04:11:45;;;;;;;52.93;21.70;;;;;;;;;;5007644;28;20226;-85
2024/01/12 04:14:13;;;;;;;48.80;20.83;;;;;;;;;;5022708;28;20594;-84
2024/01/12 04:16:41;;;;;;;61.03;19.60;;;;;;;;;;5036894;28;20222;-85
2024/01/12 04:19:09;;;;;;;55.60;19.87;;;;;;;;;;5047663;28;20647;-85
2024/01/12 04:21:37;;;;;;;24.33;19.67;;;;;;;;;;5017598;28;20656;-84
2024/01/12 04:24:02;;;;;;;31.03;21.33;;;;;;;;;;5047027;28;20214;-85
2024/01/12 04:26:28;;;;;;;27.57;22.03;;;;;;;;;;5044349;28;20890;-84
2024/01/12 04:28:54;;;;;;;22.70;18.50;;;;;;;;;;5020377;28;20225;-84
2024/01/12 04:31:21;;;;;;;32.80;21.33;;;;;;;;;;5045108;28;20598;-85
2024/01/12 04:33:52;;;;;;;28.87;22.87;;;;;;;;;;5015478;28;20234;-84
2024/01/12 04:36:23;;;;;;;30.13;19.73;;;;;;;;;;5020413;28;20223;-84
2024/01/12 04:38:51;;;;;;;25.43;21.77;;;;;;;;;;5047260;28;20294;-84
2024/01/12 04:41:16;;;;;;;40.27;21.33;;;;;;;;;;5030947;28;20896;-84
2024/01/12 04:43:42;;;;;;;30.07;20.23;;;;;;;;;;5024423;28;20219;-85
2024/01/12 04:46:10;;;;;;;28.87;20.97;;;;;;;;;;5017097;28;20649;-85
2024/01/12 04:48:37;;;;;;;42.43;21.20;;;;;;;;;;5015953;28;20229;-77
2024/01/12 04:51:05;;;;;;;47.13;21.20;;;;;;;;;;5041722;28;20219;-77
2024/01/12 04:53:36;;;;;;;61.27;20.47;;;;;;;;;;5034747;28;20241;-77
2024/01/12 04:56:06;;;;;;;44.00;22.53;;;;;;;;;;5045409;28;20226;-77
2024/01/12 04:58:34;;;;;;;27.30;19.87;;;;;;;;;;5017682;28;20223;-77
2024/01/12 05:01:02;;;;;;;28.40;19.40;;;;;;;;;;5016503;28;20355;-77
2024/01/12 05:03:27;;;;;;;45.17;22.17;;;;;;;;;;5058983;28;20214;-77
2024/01/12 05:05:57;;;;;;;32.40;18.90;;;;;;;;;;5029985;28;20269;-77
2024/01/12 05:08:25;;;;;;;49.13;20.57;;;;;;;;;;5033804;28;20226;-77
2024/01/12 05:10:54;;;;;;;40.30;21.17;;;;;;;;;;5028387;28;20618;-77
2024/01/12 05:13:20;;;;;;;38.23;19.57;;;;;;;;;;5038904;28;20239;-77
2024/01/12 05:15:45;;;;;;;31.30;19.07;;;;;;;;;;5030382;28;20584;-77
2024/01/12 05:18:15;;;;;;;36.60;19.97;;;;;;;;;;5061744;28;20219;-77
2024/01/12 05:20:41;;;;;;;30.50;21.37;;;;;;;;;;5045571;28;20296;-76
2024/01/12 05:23:06;;;;;;;31.60;22.93;;;;;;;;;;5043680;28;20223;-77
2024/01/12 05:25:32;;;;;;;34.53;20.97;;;;;;;;;;4995795;28;20222;-78
2024/01/12 05:28:00;;;;;;;27.67;22.27;;;;;;;;;;5029793;28;20227;-77
2024/01/12 05:30:32;;;;;;;32.60;22.40;;;;;;;;;;5043452;28;20234;-77
2024/01/12 05:33:05;;;;;;;28.57;21.97;;;;;;;;;;5050831;28;20236;-77
2024/01/12 05:35:30;;;;;;;38.23;24.87;;;;;;;;;;5006136;28;20222;-77
2024/01/12 05:37:56;;;;;;;37.87;23.53;;;;;;;;;;5033059;28;20214;-77
2024/01/12 05:40:23;;;;;;;34.87;21.97;;;;;;;;;;5029252;28;20233;-77
2024/01/12 05:42:49;;;;;;;32.90;21.10;;;;;;;;;;5043835;28;20603;-77
2024/01/12 05:45:14;;;;;;;39.57;20.73;;;;;;;;;;5010379;28;20227;-78
2024/01/12 05:47:44;;;;;;;32.30;21.20;;;;;;;;;;5027280;28;20217;-77
2024/01/12 05:50:13;;;;;;;30.83;22.70;;;;;;;;;;5040087;28;20293;-77
2024/01/12 05:52:41;;;;;;;47.47;25.17;;;;;;;;;;5034500;28;20621;-77
2024/01/12 05:55:07;;;;;;;35.43;21.63;;;;;;;;;;5048450;28;20222;-76
2024/01/12 05:57:33;;;;;;;39.53;24.63;;;;;;;;;;5017539;28;20284;-77
2024/01/12 05:59:58;;;;;;;47.03;22.40;;;;;;;;;;5032847;28;20242;-77
2024/01/12 06:02:27;;;;;;;32.87;21.70;;;;;;;;;;5041717;28;20215;-77
2024/01/12 06:04:54;;;;;;;49.77;22.63;;;;;;;;;;5008327;28;20214;-77
2024/01/12 06:07:22;;;;;;;34.80;22.20;;;;;;;;;;5027163;28;20288;-77
2024/01/12 06:09:50;;;;;;;34.77;21.50;;;;;;;;;;5047003;28;20211;-78
2024/01/12 06:12:15;;;;;;;54.40;23.93;;;;;;;;;;5032368;28;20215;-77
2024/01/12 06:14:41;;;;;;;73.17;23.40;;;;;;;;;;5029877;28;20599;-77
2024/01/12 06:17:08;;;;;;;41.03;21.33;;;;;;;;;;5041876;28;20219;-77
2024/01/12 06:19:33;;;;;;;45.33;21.63;;;;;;;;;;5030993;28;20237;-77
2024/01/12 06:22:01;;;;;;;36.90;24.73;;;;;;;;;;5062335;28;20727;-77
2024/01/12 06:24:27;;;;;;;36.13;23.13;;;;;;;;;;5044854;28;20223;-77
2024/01/12 06:26:54;;;;;;;41.00;22.30;;;;;;;;;;5061774;28;20215;-77
2024/01/12 06:29:22;;;;;;;39.17;22.50;;;;;;;;;;5018229;28;20224;-77
2024/01/12 06:31:53;;;;;;;44.63;23.80;;;;;;;;;;5034577;28;20229;-77
2024/01/12 06:34:20;;;;;;;36.40;22.40;;;;;;;;;;5041653;28;20695;-77
2024/01/12 06:36:48;;;;;;;35.87;21.37;;;;;;;;;;5058305;28;20226;-77
2024/01/12 06:39:13;;;;;;;36.73;23.93;;;;;;;;;;5045999;28;20227;-78
2024/01/12 06:41:42;;;;;;;36.83;23.23;;;;;;;;;;5027878;28;20215;-77
2024/01/12 06:44:08;;;;;;;35.50;23.63;;;;;;;;;;5015455;28;20310;-77
2024/01/12 06:46:40;;;;;;;42.97;24.73;;;;;;;;;;5031458;28;20231;-76
2024/01/12 06:49:08;;;;;;;38.40;24.17;;;;;;;;;;5026243;28;20226;-77
2024/01/12 06:51:34;;;;;;;43.17;25.80;;;;;;;;;;5054215;28;20762;-77
2024/01/12 06:53:59;;;;;;;46.67;24.10;;;;;;;;;;5042802;28;20234;-78
2024/01/12 06:56:25;;;;;;;38.33;23.73;;;;;;;;;;5034543;28;20224;-78
2024/01/12 06:58:51;;;;;;;42.57;21.50;;;;;;;;;;5043008;28;20220;-77
2024/01/12 07:01:20;;;;;;;40.37;21.97;;;;;;;;;;5016871;28;20218;-77
2024/01/12 07:03:51;;;;;;;33.20;22.83;;;;;;;;;;5058750;28;21051;-77
2024/01/12 07:06:19;;;;;;;37.23;22.33;;;;;;;;;;5029701;28;20225;-76
2024/01/12 07:08:49;;;;;;;33.97;22.07;;;;;;;;;;5026437;28;20701;-77
2024/01/12 07:11:17;;;;;;;35.10;22.60;;;;;;;;;;5023502;28;20782;-77
2024/01/12 07:13:42;;;;;;;36.93;23.73;;;;;;;;;;5044190;28;20231;-78
2024/01/12 07:16:10;;;;;;;38.10;21.27;;;;;;;;;;5036557;28;20216;-77
2024/01/12 07:18:38;;;;;;;35.90;22.03;;;;;;;;;;5046907;28;20297;-77
2024/01/12 07:21:03;;;;;;;39.93;22.47;;;;;;;;;;5043914;28;20294;-78
2024/01/12 07:23:32;;;;;;;35.50;21.50;;;;;;;;;;5037015;28;20235;-78
2024/01/12 07:26:00;;;;;;;47.27;23.53;;;;;;;;;;5027899;28;20227;-77
2024/01/12 07:28:26;;;;;;;41.63;24.83;;;;;;;;;;5026460;28;20230;-78
2024/01/12 07:30:56;;;;;;;44.30;24.97;;;;;;;;;;5040769;28;20695;-77
2024/01/12 07:33:22;;;;;;;41.77;24.50;;;;;;;;;;5025850;28;20680;-77
2024/01/12 07:35:47;;;;;;;51.73;24.53;;;;;;;;;;5026056;28;20215;-77
2024/01/12 07:38:13;;;;;;;41.97;25.57;;;;;;;;;;5023388;28;20266;-78
2024/01/12 07:40:41;;;;;;;44.97;25.20;;;;;;;;;;5026537;28;20227;-78
2024/01/12 07:43:06;;;;;;;56.13;24.33;;;;;;;;;;5057366;28;20223;-78
2024/01/12 07:45:32;;;;;;;45.47;25.47;;;;;;;;;;5027385;28;22796;-78
2024/01/12 07:48:02;;;;;;;53.10;28.40;;;;;;;;;;5028396;28;20231;-78
2024/01/12 07:50:31;;;;;;;44.63;24.23;;;;;;;;;;5007724;28;20941;-76
2024/01/12 07:52:56;;;;;;;45.23;25.73;;;;;;;;;;5024297;28;20667;-76
2024/01/12 07:55:24;;;;;;;46.67;26.43;;;;;;;;;;5014134;28;20223;-76
2024/01/12 07:57:52;;;;;;;41.63;25.50;;;;;;;;;;5026000;28;20219;-76
2024/01/12 08:00:18;;;;;;;53.63;30.63;;;;;;;;;;5021513;28;20989;-76
2024/01/12 08:02:43;;;;;;;53.80;34.93;;;;;;;;;;5023853;28;20218;-79
2024/01/12 08:05:12;;;;;;;43.30;27.73;;;;;;;;;;5012793;28;20280;-76
2024/01/12 08:07:40;;;;;;;46.50;29.37;;;;;;;;;;5022412;28;20707;-76
2024/01/12 08:10:05;;;;;;;43.03;26.73;;;;;;;;;;5020634;28;20268;-76
2024/01/12 08:12:31;;;;;;;36.60;24.80;;;;;;;;;;5035896;28;20276;-79
2024/01/12 08:15:01;;;;;;;36.50;26.53;;;;;;;;;;5015439;28;20221;-76
2024/01/12 08:17:27;;;;;;;40.10;27.97;;;;;;;;;;5039653;28;20227;-76
2024/01/12 08:19:54;;;;;;;53.47;29.33;;;;;;;;;;5029647;28;20591;-76
2024/01/12 08:22:22;;;;;;;42.40;28.13;;;;;;;;;;5005510;28;20280;-77
2024/01/12 08:24:55;;;;;;;40.60;25.90;;;;;;;;;;5055239;28;20243;-77
2024/01/12 08:27:23;;;;;;;33.20;24.13;;;;;;;;;;5038102;28;20281;-76
2024/01/12 08:29:48;;;;;;;33.90;24.40;;;;;;;;;;5029302;28;20215;-76
2024/01/12 08:32:16;;;;;;;34.07;23.23;;;;;;;;;;5038380;28;20227;-76
2024/01/12 08:34:44;;;;;;;34.30;23.17;;;;;;;;;;5013535;28;20218;-77
2024/01/12 08:37:10;;;;;;;36.07;24.70;;;;;;;;;;5054095;28;20222;-76
2024/01/12 08:39:37;;;;;;;40.43;24.27;;;;;;;;;;5030544;28;20587;-77
2024/01/12 08:42:06;;;;;;;40.73;24.43;;;;;;;;;;5022370;28;20219;-76
2024/01/12 08:44:32;;;;;;;36.60;23.90;;;;;;;;;;5027523;28;20238;-77
2024/01/12 08:47:05;;;;;;;34.40;23.80;;;;;;;;;;5025385;28;20227;-77
2024/01/12 08:49:30;;;;;;;37.93;25.90;;;;;;;;;;5029108;28;20226;-77
2024/01/12 08:51:56;;;;;;;40.73;23.90;;;;;;;;;;5039191;28;20227;-77
2024/01/12 08:54:21;;;;;;;36.60;25.00;;;;;;;;;;5021918;28;20765;-77
2024/01/12 08:56:47;;;;;;;39.23;24.13;;;;;;;;;;5027485;28;20214;-77
2024/01/12 08:59:13;;;;;;;39.07;24.30;;;;;;;;;;5028473;28;20223;-78
2024/01/12 09:01:43;;;;;;;42.40;26.73;;;;;;;;;;5038556;28;20226;-77
2024/01/12 09:04:09;;;;;;;42.17;24.40;;;;;;;;;;5022491;28;20676;-77
2024/01/12 09:06:34;;;;;;;42.93;27.33;;;;;;;;;;5058357;28;20253;-77
2024/01/12 09:09:00;;;;;;;41.33;26.73;;;;;;;;;;5029117;28;20613;-77
2024/01/12 09:11:25;;;;;;;39.50;26.53;;;;;;;;;;5029028;28;20889;-76
2024/01/12 09:13:53;;;;;;;43.80;26.03;;;;;;;;;;5041082;28;20227;-77
2024/01/12 09:16:23;;;;;;;43.87;26.93;;;;;;;;;;5012146;28;20204;-77
2024/01/12 09:18:51;;;;;;;43.83;28.50;;;;;;;;;;5056790;28;20226;-77
2024/01/12 09:21:22;;;;;;;43.30;28.43;;;;;;;;;;5044039;28;20839;-77
2024/01/12 09:23:50;;;;;;;45.03;28.90;;;;;;;;;;5041000;28;20293;-77
2024/01/12 09:26:18;;;;;;;54.07;29.53;;;;;;;;;;5024291;28;20324;-77
2024/01/12 09:28:43;;;;;;;45.73;29.27;;;;;;;;;;5029706;28;20317;-77
2024/01/12 09:31:09;;;;;;;44.43;28.93;;;;;;;;;;5015166;28;20226;-77
2024/01/12 09:33:37;;;;;;;46.43;30.57;;;;;;;;;;5031498;28;20231;-76
2024/01/12 09:36:09;;;;;;;52.87;31.37;;;;;;;;;;5005525;28;20287;-77
2024/01/12 09:38:35;;;;;;;54.43;39.30;;;;;;;;;;5012132;28;20255;-77
2024/01/12 09:41:02;;;;;;;45.33;32.10;;;;;;;;;;5010019;28;20230;-77
2024/01/12 09:43:29;;;;;;;45.07;31.50;;;;;;;;;;5014387;28;20568;-77
2024/01/12 09:45:54;;;;;;;46.83;31.17;;;;;;;;;;5002352;28;20218;-77
2024/01/12 09:48:20;;;;;;;44.83;30.17;;;;;;;;;;5028028;28;20264;-77
2024/01/12 09:50:45;;;;;;;45.20;28.83;;;;;;;;;;5009153;28;20216;-77
2024/01/12 09:53:11;;;;;;;54.30;32.47;;;;;;;;;;5028234;28;20245;-77
2024/01/12 09:55:36;;;;;;;45.80;31.23;;;;;;;;;;5028062;28;20219;-77
2024/01/12 09:58:04;;;;;;;45.63;30.10;;;;;;;;;;5022439;28;20279;-76
2024/01/12 10:00:31;;;;;;;42.70;29.07;;;;;;;;;;5014273;28;20211;-76
2024/01/12 10:02:58;;;;;;;47.77;30.90;;;;;;;;;;5040878;28;20218;-76
2024/01/12 10:05:27;;;;;;;45.53;31.43;;;;;;;;;;5015062;28;20245;-76
2024/01/12 10:07:52;;;;;;;59.63;31.67;;;;;;;;;;5026142;28;20250;-77
2024/01/12 10:10:18;;;;;;;40.73;29.03;;;;;;;;;;5025036;28;20215;-77
2024/01/12 10:12:48;;;;;;;48.97;31.00;;;;;;;;;;5027660;28;20763;-77
2024/01/12 10:15:14;;;;;;;45.30;28.77;;;;;;;;;;5047364;28;20219;-77
2024/01/12 10:17:48;;;;;;;37.33;27.97;;;;;;;;;;5031508;28;20215;-76
2024/01/12 10:20:15;;;;;;;45.13;30.83;;;;;;;;;;5031788;28;20219;-76
2024/01/12 10:22:42;;;;;;;43.73;32.10;;;;;;;;;;5032925;28;20234;-77
2024/01/12 10:25:08;;;;;;;43.07;27.27;;;;;;;;;;5026667;28;20234;-76
2024/01/12 10:27:36;;;;;;;37.33;25.73;;;;;;;;;;5014877;28;20247;-77
2024/01/12 10:30:01;;;;;;;43.13;29.97;;;;;;;;;;5043921;28;20269;-77
2024/01/12 10:32:27;;;;;;;40.33;28.90;;;;;;;;;;5025007;28;20707;-77
2024/01/12 10:34:53;;;;;;;41.50;29.60;;;;;;;;;;5025790;28;20251;-77
2024/01/12 10:37:19;;;;;;;36.73;26.80;;;;;;;;;;5031996;28;20227;-77
2024/01/12 10:39:50;;;;;;;42.70;28.03;;;;;;;;;;5034027;28;20222;-78
2024/01/12 10:42:21;;;;;;;48.33;29.53;;;;;;;;;;5027069;28;20305;-77
2024/01/12 10:44:47;;;;;;;39.60;28.07;;;;;;;;;;5006397;28;20219;-78
2024/01/12 10:47:17;;;;;;;49.70;31.43;;;;;;;;;;5026043;28;20246;-78
2024/01/12 10:50:06;;;;;;;45.27;30.17;;;;;;;;;;5045060;28;20219;-77
2024/01/12 10:52:51;;;;;;;40.00;27.03;;;;;;;;;;5055270;28;20230;-78
2024/01/12 10:55:19;;;;;;;39.63;28.60;;;;;;;;;;5048712;28;20226;-77
2024/01/12 10:57:48;;;;;;;44.97;28.90;;;;;;;;;;5044812;28;21011;-78
2024/01/12 11:00:20;;;;;;;37.90;28.53;;;;;;;;;;5023704;28;20699;-77
2024/01/12 11:02:48;;;;;;;35.67;24.03;;;;;;;;;;5018248;28;20214;-77
2024/01/12 11:05:13;;;;;;;30.30;24.20;;;;;;;;;;5027171;28;20219;-77
2024/01/12 11:07:42;;;;;;;39.37;25.83;;;;;;;;;;5052873;28;20246;-77
2024/01/12 11:10:10;;;;;;;30.33;24.30;;;;;;;;;;5037528;28;20249;-77
2024/01/12 11:12:36;;;;;;;36.33;28.33;;;;;;;;;;5019059;28;20224;-77
2024/01/12 11:15:05;;;;;;;32.97;23.63;;;;;;;;;;5032553;28;20227;-78
2024/01/12 11:17:36;;;;;;;51.10;35.47;;;;;;;;;;5034591;28;20227;-78
2024/01/12 11:20:04;;;;;;;30.73;25.20;;;;;;;;;;5047278;28;20283;-77
2024/01/12 11:22:30;;;;;;;27.27;24.37;;;;;;;;;;5043483;28;20323;-77
2024/01/12 11:24:57;;;;;;;29.40;23.33;;;;;;;;;;5032717;28;20214;-77
2024/01/12 11:27:32;;;;;;;30.73;24.20;;;;;;;;;;5040282;28;20223;-78
2024/01/12 11:30:08;;;;;;;31.57;22.50;;;;;;;;;;5018145;28;20569;-78
2024/01/12 11:32:33;;;;;;;28.37;21.43;;;;;;;;;;5030986;28;20322;-77
2024/01/12 11:35:18;;;;;;;25.07;22.40;;;;;;;;;;5050420;28;20226;-77
2024/01/12 11:37:44;;;;;;;27.37;21.77;;;;;;;;;;5058134;28;20250;-77
2024/01/12 11:40:14;;;;;;;26.03;21.97;;;;;;;;;;5034567;28;20237;-78
2024/01/12 11:42:42;;;;;;;28.73;22.53;;;;;;;;;;5029362;28;20246;-78
2024/01/12 11:45:13;;;;;;;25.37;22.23;;;;;;;;;;5028400;28;20219;-78
2024/01/12 11:47:42;;;;;;;24.67;22.07;;;;;;;;;;5032529;28;20235;-78
2024/01/12 11:50:09;;;;;;;30.93;25.47;;;;;;;;;;5020739;28;20223;-78
2024/01/12 11:52:36;;;;;;;27.00;22.87;;;;;;;;;;5050381;28;20230;-78
2024/01/12 11:55:09;;;;;;;22.37;20.17;;;;;;;;;;5039405;28;20219;-78
2024/01/12 11:57:38;;;;;;;24.33;21.77;;;;;;;;;;5040830;28;20219;-87
2024/01/12 12:00:05;;;;;;;24.17;21.00;;;;;;;;;;5013105;28;20242;-87
2024/01/12 12:02:35;;;;;;;25.83;20.73;;;;;;;;;;5055145;28;20219;-86
2024/01/12 12:05:11;;;;;;;28.07;20.90;;;;;;;;;;5020843;28;20343;-85
2024/01/12 12:07:40;;;;;;;26.10;23.37;;;;;;;;;;5038886;28;20254;-85
2024/01/12 12:10:12;;;;;;;24.33;21.77;;;;;;;;;;5041183;28;20230;-85
2024/01/12 12:12:37;;;;;;;24.47;21.87;;;;;;;;;;5040540;28;20651;-85
2024/01/12 12:15:09;;;;;;;24.07;20.90;;;;;;;;;;5034658;28;20226;-85
2024/01/12 12:17:40;;;;;;;26.30;23.47;;;;;;;;;;5039422;28;20248;-86
2024/01/12 12:20:11;;;;;;;63.63;46.07;;;;;;;;;;5019217;28;20222;-85
2024/01/12 12:22:40;;;;;;;28.80;25.70;;;;;;;;;;5016385;28;20223;-86
2024/01/12 12:25:25;;;;;;;28.60;25.53;;;;;;;;;;5056303;28;20721;-87
2024/01/12 12:27:51;;;;;;;26.33;22.50;;;;;;;;;;5036222;28;20243;-86
2024/01/12 12:30:19;;;;;;;27.07;24.17;;;;;;;;;;5034873;28;20226;-86
2024/01/12 12:32:45;;;;;;;38.40;30.53;;;;;;;;;;5040853;28;20294;-86
2024/01/12 12:35:23;;;;;;;32.63;26.10;;;;;;;;;;5022377;28;20243;-87
2024/01/12 12:37:51;;;;;;;22.83;20.43;;;;;;;;;;5024895;28;20323;-87
2024/01/12 12:40:17;;;;;;;22.10;19.87;;;;;;;;;;5039608;28;20729;-86
2024/01/12 12:42:47;;;;;;;22.27;19.77;;;;;;;;;;5039837;28;20218;-87
2024/01/12 12:45:13;;;;;;;23.60;20.93;;;;;;;;;;5024645;28;20631;-87
2024/01/12 12:47:39;;;;;;;21.93;19.57;;;;;;;;;;5022606;28;20214;-85
2024/01/12 12:50:05;;;;;;;22.43;20.10;;;;;;;;;;5024225;28;20587;-86
2024/01/12 12:52:33;;;;;;;21.33;19.27;;;;;;;;;;5027007;28;20234;-86
2024/01/12 12:55:04;;;;;;;24.07;19.77;;;;;;;;;;5026925;28;20218;-86
2024/01/12 12:57:32;;;;;;;23.80;20.77;;;;;;;;;;5025068;28;20230;-86
2024/01/12 13:00:00;;;;;;;23.50;21.10;;;;;;;;;;4999804;28;20211;-86
2024/01/12 13:02:28;;;;;;;22.77;20.07;;;;;;;;;;5024671;28;20226;-87
2024/01/12 13:04:56;;;;;;;31.30;26.97;;;;;;;;;;5023745;28;20214;-87
2024/01/12 13:07:21;;;;;;;24.83;22.17;;;;;;;;;;5023363;28;20231;-87
2024/01/12 13:09:51;;;;;;;28.80;23.60;;;;;;;;;;5023812;28;20215;-86
2024/01/12 13:12:16;;;;;;;32.33;26.13;;;;;;;;;;5022730;28;20219;-87
2024/01/12 13:14:42;;;;;;;37.30;30.17;;;;;;;;;;5027435;28;20238;-87
2024/01/12 13:17:11;;;;;;;50.47;37.60;;;;;;;;;;5004497;28;20235;-85
2024/01/12 13:19:41;;;;;;;30.97;24.60;;;;;;;;;;5026356;28;20218;-87
2024/01/12 13:22:10;;;;;;;25.47;22.87;;;;;;;;;;5023490;28;20229;-87
2024/01/12 13:24:39;;;;;;;27.40;23.83;;;;;;;;;;5031419;28;20219;-88
2024/01/12 13:27:07;;;;;;;24.77;22.13;;;;;;;;;;5005712;28;20233;-87
2024/01/12 13:29:35;;;;;;;26.23;22.30;;;;;;;;;;5032693;28;20219;-87
2024/01/12 13:32:02;;;;;;;29.20;23.27;;;;;;;;;;5025441;28;20287;-87
2024/01/12 13:34:28;;;;;;;25.47;21.73;;;;;;;;;;5016037;28;20214;-88
2024/01/12 13:36:54;;;;;;;25.10;21.77;;;;;;;;;;5032541;28;20229;-86
2024/01/12 13:39:20;;;;;;;25.07;22.37;;;;;;;;;;5015487;28;20219;-87
2024/01/12 13:41:48;;;;;;;30.63;25.17;;;;;;;;;;5054241;28;20219;-88
2024/01/12 13:44:15;;;;;;;30.50;25.40;;;;;;;;;;5026665;28;20716;-87
2024/01/12 13:46:41;;;;;;;36.17;25.93;;;;;;;;;;5029159;28;20226;-87
2024/01/12 13:49:06;;;;;;;36.53;28.20;;;;;;;;;;5046527;28;20223;-87
2024/01/12 13:51:34;;;;;;;39.10;33.07;;;;;;;;;;5048553;28;20227;-88
2024/01/12 13:54:03;;;;;;;40.87;36.43;;;;;;;;;;5019802;28;20318;-86
2024/01/12 13:56:29;;;;;;;38.70;30.13;;;;;;;;;;5047528;28;20265;-87
2024/01/12 13:58:58;;;;;;;32.37;28.93;;;;;;;;;;5026794;28;20946;-87
2024/01/12 14:01:26;;;;;;;43.50;36.13;;;;;;;;;;5023223;28;20677;-86
2024/01/12 14:03:51;;;;;;;35.33;29.27;;;;;;;;;;5028993;28;20227;-87
2024/01/12 14:06:19;;;;;;;34.43;29.00;;;;;;;;;;5041832;28;21012;-88
2024/01/12 14:08:49;;;;;;;30.80;27.40;;;;;;;;;;5040885;28;20258;-88
2024/01/12 14:11:17;;;;;;;33.53;29.47;;;;;;;;;;5036455;28;20252;-84
2024/01/12 14:13:47;;;;;;;37.70;28.27;;;;;;;;;;5027749;28;20231;-87
2024/01/12 14:16:16;;;;;;;42.00;28.60;;;;;;;;;;5019946;28;20605;-88
2024/01/12 14:18:44;;;;;;;38.93;29.10;;;;;;;;;;5042653;28;20215;-85
2024/01/12 14:21:10;;;;;;;31.57;28.10;;;;;;;;;;5030985;28;20229;-86